sensor_id;sensor_type;location;lat;lon;timestamp;pressure;altitude;pressure_sealevel;temperature;humidity
1726;BME280;41776;48.260;8.928;2022-12-24T00:00:25;52616.69;;;-145.69;100.00
1726;BME280;41776;48.260;8.928;2022-12-24T00:02:52;52616.69;;;-145.69;100.00
1726;BME280;41776;48.260;8.928;2022-12-24T00:05:18;52640.44;;;-145.69;100.00
1726;BME280;41776;48.260;8.928;2022-12-24T00:07:44;52626.59;;;-145.69;100.00
1726;BME280;41776;48.260;8.928;2022-12-24T00:10:11;52610.75;;;-145.69;100.00
1726;BME280;41776;48.260;8.928;2022-12-24T00:12:39;52618.66;;;-145.69;100.00
1726;BME280;41776;48.260;8.928;2022-12-24T00:15:06;52642.44;;;-145.69;100.00
1726;BME280;41776;48.260;8.928;2022-12-24T00:17:33;52630.53;;;-145.69;100.00
1726;BME280;41776;48.260;8.928;2022-12-24T00:19:59;52638.47;;;-145.69;100.00
1726;BME280;41776;48.260;8.928;2022-12-24T00:22:26;52630.53;;;-145.69;100.00
1726;BME280;41776;48.260;8.928;2022-12-24T00:24:52;52638.47;;;-145.69;100.00
1726;BME280;41776;48.260;8.928;2022-12-24T00:27:18;52630.53;;;-145.69;100.00
1726;BME280;41776;48.260;8.928;2022-12-24T00:29:46;52610.75;;;-145.69;100.00
1726;BME280;41776;48.260;8.928;2022-12-24T00:32:13;52614.72;;;-145.69;100.00
1726;BME280;41776;48.260;8.928;2022-12-24T00:34:39;52650.34;;;-145.69;100.00
1726;BME280;41776;48.260;8.928;2022-12-24T00:37:06;52630.53;;;-145.69;100.00
1726;BME280;41776;48.260;8.928;2022-12-24T00:39:32;52614.72;;;-145.69;100.00
1726;BME280;41776;48.260;8.928;2022-12-24T00:41:59;52628.56;;;-145.69;100.00
1726;BME280;41776;48.260;8.928;2022-12-24T00:44:25;52622.63;;;-145.69;100.00
1726;BME280;41776;48.260;8.928;2022-12-24T00:46:53;52620.66;;;-145.69;100.00
1726;BME280;41776;48.260;8.928;2022-12-24T00:49:20;52630.53;;;-145.69;100.00
1726;BME280;41776;48.260;8.928;2022-12-24T00:51:46;52624.59;;;-145.69;100.00
1726;BME280;41776;48.260;8.928;2022-12-24T00:54:13;52624.59;;;-145.69;100.00
1726;BME280;41776;48.260;8.928;2022-12-24T00:56:39;52654.31;;;-145.69;100.00
1726;BME280;41776;48.260;8.928;2022-12-24T00:59:06;52684.03;;;-145.69;100.00
1726;BME280;41776;48.260;8.928;2022-12-24T01:01:32;52642.44;;;-145.69;100.00
1726;BME280;41776;48.260;8.928;2022-12-24T01:04:01;52598.84;;;-145.69;100.00
1726;BME280;41776;48.260;8.928;2022-12-24T01:06:42;52606.78;;;-145.69;100.00
1726;BME280;41776;48.260;8.928;2022-12-24T01:09:08;52660.25;;;-145.69;100.00
1726;BME280;41776;48.260;8.928;2022-12-24T01:11:35;52586.97;;;-145.69;100.00
1726;BME280;41776;48.260;8.928;2022-12-24T01:14:02;52634.50;;;-145.69;100.00
1726;BME280;41776;48.260;8.928;2022-12-24T01:16:28;52614.72;;;-145.69;100.00
1726;BME280;41776;48.260;8.928;2022-12-24T01:18:54;52620.66;;;-145.69;100.00
1726;BME280;41776;48.260;8.928;2022-12-24T01:21:22;52624.59;;;-145.69;100.00
1726;BME280;41776;48.260;8.928;2022-12-24T01:23:49;52610.75;;;-145.69;100.00
1726;BME280;41776;48.260;8.928;2022-12-24T01:26:15;52626.59;;;-145.69;100.00
1726;BME280;41776;48.260;8.928;2022-12-24T01:28:42;52618.66;;;-145.69;100.00
1726;BME280;41776;48.260;8.928;2022-12-24T01:31:10;52638.47;;;-145.69;100.00
1726;BME280;41776;48.260;8.928;2022-12-24T01:33:36;52656.28;;;-145.69;100.00
1726;BME280;41776;48.260;8.928;2022-12-24T01:36:03;52644.41;;;-145.69;100.00
1726;BME280;41776;48.260;8.928;2022-12-24T01:38:31;52630.53;;;-145.69;100.00
1726;BME280;41776;48.260;8.928;2022-12-24T01:40:57;52638.47;;;-145.69;100.00
1726;BME280;41776;48.260;8.928;2022-12-24T01:43:41;52622.63;;;-145.69;100.00
1726;BME280;41776;48.260;8.928;2022-12-24T01:46:13;52642.44;;;-145.69;100.00
1726;BME280;41776;48.260;8.928;2022-12-24T01:48:44;52622.63;;;-145.69;100.00
1726;BME280;41776;48.260;8.928;2022-12-24T01:51:21;52636.50;;;-145.69;100.00
1726;BME280;41776;48.260;8.928;2022-12-24T01:53:58;52634.50;;;-145.69;100.00
1726;BME280;41776;48.260;8.928;2022-12-24T01:56:28;52652.34;;;-145.69;100.00
1726;BME280;41776;48.260;8.928;2022-12-24T01:58:59;52636.50;;;-145.69;100.00
1726;BME280;41776;48.260;8.928;2022-12-24T02:01:26;52622.63;;;-145.69;100.00
1726;BME280;41776;48.260;8.928;2022-12-24T02:03:52;52630.53;;;-145.69;100.00
1726;BME280;41776;48.260;8.928;2022-12-24T02:06:19;52632.53;;;-145.69;100.00
1726;BME280;41776;48.260;8.928;2022-12-24T02:08:46;52622.63;;;-145.69;100.00
1726;BME280;41776;48.260;8.928;2022-12-24T02:11:16;52624.59;;;-145.69;100.00
1726;BME280;41776;48.260;8.928;2022-12-24T02:13:45;52626.59;;;-145.69;100.00
1726;BME280;41776;48.260;8.928;2022-12-24T02:16:20;52624.59;;;-145.69;100.00
1726;BME280;41776;48.260;8.928;2022-12-24T02:18:54;52610.75;;;-145.69;100.00
1726;BME280;41776;48.260;8.928;2022-12-24T02:21:33;52638.47;;;-145.69;100.00
1726;BME280;41776;48.260;8.928;2022-12-24T02:27:13;52602.81;;;-145.69;100.00
1726;BME280;41776;48.260;8.928;2022-12-24T02:29:59;52594.91;;;-145.69;100.00
1726;BME280;41776;48.260;8.928;2022-12-24T02:32:32;52618.66;;;-145.69;100.00
1726;BME280;41776;48.260;8.928;2022-12-24T02:35:04;52608.75;;;-145.69;100.00
1726;BME280;41776;48.260;8.928;2022-12-24T02:37:36;52602.81;;;-145.69;100.00
1726;BME280;41776;48.260;8.928;2022-12-24T02:40:07;52608.75;;;-145.69;100.00
1726;BME280;41776;48.260;8.928;2022-12-24T02:42:39;52632.53;;;-145.69;100.00
1726;BME280;41776;48.260;8.928;2022-12-24T02:45:09;52622.63;;;-145.69;100.00
1726;BME280;41776;48.260;8.928;2022-12-24T02:47:36;52614.72;;;-145.69;100.00
1726;BME280;41776;48.260;8.928;2022-12-24T02:50:07;52636.50;;;-145.69;100.00
1726;BME280;41776;48.260;8.928;2022-12-24T02:52:36;52579.06;;;-145.69;100.00
1726;BME280;41776;48.260;8.928;2022-12-24T02:55:06;52620.66;;;-145.69;100.00
1726;BME280;41776;48.260;8.928;2022-12-24T02:57:45;52608.75;;;-145.69;100.00
1726;BME280;41776;48.260;8.928;2022-12-24T03:00:18;52646.41;;;-145.69;100.00
1726;BME280;41776;48.260;8.928;2022-12-24T03:03:04;52668.19;;;-145.69;100.00
1726;BME280;41776;48.260;8.928;2022-12-24T03:05:38;52626.59;;;-145.69;100.00
1726;BME280;41776;48.260;8.928;2022-12-24T03:08:12;52636.50;;;-145.69;100.00
1726;BME280;41776;48.260;8.928;2022-12-24T03:10:46;52622.63;;;-145.69;100.00
1726;BME280;41776;48.260;8.928;2022-12-24T03:13:18;52634.50;;;-145.69;100.00
1726;BME280;41776;48.260;8.928;2022-12-24T03:15:49;52592.91;;;-145.69;100.00
1726;BME280;41776;48.260;8.928;2022-12-24T03:18:17;52638.47;;;-145.69;100.00
1726;BME280;41776;48.260;8.928;2022-12-24T03:20:47;52654.31;;;-145.69;100.00
1726;BME280;41776;48.260;8.928;2022-12-24T03:23:15;52644.41;;;-145.69;100.00
1726;BME280;41776;48.260;8.928;2022-12-24T03:25:43;52628.56;;;-145.69;100.00
1726;BME280;41776;48.260;8.928;2022-12-24T03:28:12;52616.69;;;-145.69;100.00
1726;BME280;41776;48.260;8.928;2022-12-24T03:30:40;52618.66;;;-145.69;100.00
1726;BME280;41776;48.260;8.928;2022-12-24T03:33:09;52636.50;;;-145.69;100.00
1726;BME280;41776;48.260;8.928;2022-12-24T03:35:35;52600.84;;;-145.69;100.00
1726;BME280;41776;48.260;8.928;2022-12-24T03:38:02;52630.53;;;-145.69;100.00
1726;BME280;41776;48.260;8.928;2022-12-24T03:40:28;52634.50;;;-145.69;100.00
1726;BME280;41776;48.260;8.928;2022-12-24T03:42:55;52622.63;;;-145.69;100.00
1726;BME280;41776;48.260;8.928;2022-12-24T03:45:21;52646.41;;;-145.69;100.00
1726;BME280;41776;48.260;8.928;2022-12-24T03:47:48;52662.22;;;-145.69;100.00
1726;BME280;41776;48.260;8.928;2022-12-24T03:50:16;52632.53;;;-145.69;100.00
1726;BME280;41776;48.260;8.928;2022-12-24T03:52:42;52634.50;;;-145.69;100.00
1726;BME280;41776;48.260;8.928;2022-12-24T03:55:09;52652.34;;;-145.69;100.00
1726;BME280;41776;48.260;8.928;2022-12-24T03:57:36;52598.84;;;-145.69;100.00
1726;BME280;41776;48.260;8.928;2022-12-24T04:00:02;52642.44;;;-145.69;100.00
1726;BME280;41776;48.260;8.928;2022-12-24T04:02:29;52624.59;;;-145.69;100.00
1726;BME280;41776;48.260;8.928;2022-12-24T04:04:56;52632.53;;;-145.69;100.00
1726;BME280;41776;48.260;8.928;2022-12-24T04:07:24;52654.31;;;-145.69;100.00
1726;BME280;41776;48.260;8.928;2022-12-24T04:09:50;52658.28;;;-145.69;100.00
1726;BME280;41776;48.260;8.928;2022-12-24T04:12:16;52646.41;;;-145.69;100.00
1726;BME280;41776;48.260;8.928;2022-12-24T04:14:43;52668.19;;;-145.69;100.00
1726;BME280;41776;48.260;8.928;2022-12-24T04:17:09;52620.66;;;-145.69;100.00
1726;BME280;41776;48.260;8.928;2022-12-24T04:19:36;52636.50;;;-145.69;100.00
1726;BME280;41776;48.260;8.928;2022-12-24T04:22:02;52632.53;;;-145.69;100.00
1726;BME280;41776;48.260;8.928;2022-12-24T04:24:30;52674.13;;;-145.69;100.00
1726;BME280;41776;48.260;8.928;2022-12-24T04:26:56;52630.53;;;-145.69;100.00
1726;BME280;41776;48.260;8.928;2022-12-24T04:29:23;52634.50;;;-145.69;100.00
1726;BME280;41776;48.260;8.928;2022-12-24T04:31:49;52662.22;;;-145.69;100.00
1726;BME280;41776;48.260;8.928;2022-12-24T04:34:16;52642.44;;;-145.69;100.00
1726;BME280;41776;48.260;8.928;2022-12-24T04:36:42;52604.81;;;-145.69;100.00
1726;BME280;41776;48.260;8.928;2022-12-24T04:39:08;52640.44;;;-145.69;100.00
1726;BME280;41776;48.260;8.928;2022-12-24T04:41:36;52660.25;;;-145.69;100.00
1726;BME280;41776;48.260;8.928;2022-12-24T04:44:03;52610.75;;;-145.69;100.00
1726;BME280;41776;48.260;8.928;2022-12-24T04:46:30;52642.44;;;-145.69;100.00
1726;BME280;41776;48.260;8.928;2022-12-24T04:48:57;52630.53;;;-145.69;100.00
1726;BME280;41776;48.260;8.928;2022-12-24T04:51:25;52646.41;;;-145.69;100.00
1726;BME280;41776;48.260;8.928;2022-12-24T04:53:51;52644.41;;;-145.69;100.00
1726;BME280;41776;48.260;8.928;2022-12-24T04:56:20;52622.63;;;-145.69;100.00
1726;BME280;41776;48.260;8.928;2022-12-24T04:58:48;52636.50;;;-145.69;100.00
1726;BME280;41776;48.260;8.928;2022-12-24T05:01:17;52614.72;;;-145.69;100.00
1726;BME280;41776;48.260;8.928;2022-12-24T05:03:44;52626.59;;;-145.69;100.00
1726;BME280;41776;48.260;8.928;2022-12-24T05:06:12;52654.31;;;-145.69;100.00
1726;BME280;41776;48.260;8.928;2022-12-24T05:08:40;52636.50;;;-145.69;100.00
1726;BME280;41776;48.260;8.928;2022-12-24T05:11:06;52634.50;;;-145.69;100.00
1726;BME280;41776;48.260;8.928;2022-12-24T05:13:33;52624.59;;;-145.69;100.00
1726;BME280;41776;48.260;8.928;2022-12-24T05:16:01;52608.75;;;-145.69;100.00
1726;BME280;41776;48.260;8.928;2022-12-24T05:18:27;52634.50;;;-145.69;100.00
1726;BME280;41776;48.260;8.928;2022-12-24T05:20:54;52640.44;;;-145.69;100.00
1726;BME280;41776;48.260;8.928;2022-12-24T05:23:22;52610.75;;;-145.69;100.00
1726;BME280;41776;48.260;8.928;2022-12-24T05:26:12;52624.59;;;-145.69;100.00
1726;BME280;41776;48.260;8.928;2022-12-24T05:28:50;52602.81;;;-145.69;100.00
1726;BME280;41776;48.260;8.928;2022-12-24T05:31:18;52598.84;;;-145.69;100.00
1726;BME280;41776;48.260;8.928;2022-12-24T05:33:45;52626.59;;;-145.69;100.00
1726;BME280;41776;48.260;8.928;2022-12-24T05:36:12;52620.66;;;-145.69;100.00
1726;BME280;41776;48.260;8.928;2022-12-24T05:38:38;52604.81;;;-145.69;100.00
1726;BME280;41776;48.260;8.928;2022-12-24T05:41:05;52646.41;;;-145.69;100.00
1726;BME280;41776;48.260;8.928;2022-12-24T05:43:33;52586.97;;;-145.69;100.00
1726;BME280;41776;48.260;8.928;2022-12-24T05:46:00;52614.72;;;-145.69;100.00
1726;BME280;41776;48.260;8.928;2022-12-24T05:48:28;52614.72;;;-145.69;100.00
1726;BME280;41776;48.260;8.928;2022-12-24T05:50:55;52606.78;;;-145.69;100.00
1726;BME280;41776;48.260;8.928;2022-12-24T05:53:21;52610.75;;;-145.69;100.00
1726;BME280;41776;48.260;8.928;2022-12-24T05:55:48;52602.81;;;-145.69;100.00
1726;BME280;41776;48.260;8.928;2022-12-24T05:58:15;52614.72;;;-145.69;100.00
1726;BME280;41776;48.260;8.928;2022-12-24T06:00:42;52620.66;;;-145.69;100.00
1726;BME280;41776;48.260;8.928;2022-12-24T06:03:08;52630.53;;;-145.69;100.00
1726;BME280;41776;48.260;8.928;2022-12-24T06:05:36;52630.53;;;-145.69;100.00
1726;BME280;41776;48.260;8.928;2022-12-24T06:08:05;52652.34;;;-145.69;100.00
1726;BME280;41776;48.260;8.928;2022-12-24T06:10:32;52614.72;;;-145.69;100.00
1726;BME280;41776;48.260;8.928;2022-12-24T06:12:58;52622.63;;;-145.69;100.00
1726;BME280;41776;48.260;8.928;2022-12-24T06:15:24;52590.94;;;-145.69;100.00
1726;BME280;41776;48.260;8.928;2022-12-24T06:17:51;52636.50;;;-145.69;100.00
1726;BME280;41776;48.260;8.928;2022-12-24T06:20:17;52624.59;;;-145.69;100.00
1726;BME280;41776;48.260;8.928;2022-12-24T06:22:45;52634.50;;;-145.69;100.00
1726;BME280;41776;48.260;8.928;2022-12-24T06:25:11;52579.06;;;-145.69;100.00
1726;BME280;41776;48.260;8.928;2022-12-24T06:27:38;52632.53;;;-145.69;100.00
1726;BME280;41776;48.260;8.928;2022-12-24T06:30:05;52622.63;;;-145.69;100.00
1726;BME280;41776;48.260;8.928;2022-12-24T06:32:32;52644.41;;;-145.69;100.00
1726;BME280;41776;48.260;8.928;2022-12-24T06:34:58;52622.63;;;-145.69;100.00
1726;BME280;41776;48.260;8.928;2022-12-24T06:37:25;52614.72;;;-145.69;100.00
1726;BME280;41776;48.260;8.928;2022-12-24T06:39:52;52618.66;;;-145.69;100.00
1726;BME280;41776;48.260;8.928;2022-12-24T06:42:19;52634.50;;;-145.69;100.00
1726;BME280;41776;48.260;8.928;2022-12-24T06:44:45;52630.53;;;-145.69;100.00
1726;BME280;41776;48.260;8.928;2022-12-24T06:47:12;52616.69;;;-145.69;100.00
1726;BME280;41776;48.260;8.928;2022-12-24T06:49:38;52634.50;;;-145.69;100.00
1726;BME280;41776;48.260;8.928;2022-12-24T06:52:04;52638.47;;;-145.69;100.00
1726;BME280;41776;48.260;8.928;2022-12-24T06:54:31;52618.66;;;-145.69;100.00
1726;BME280;41776;48.260;8.928;2022-12-24T06:56:59;52640.44;;;-145.69;100.00
1726;BME280;41776;48.260;8.928;2022-12-24T06:59:25;52628.56;;;-145.69;100.00
1726;BME280;41776;48.260;8.928;2022-12-24T07:01:51;52622.63;;;-145.69;100.00
1726;BME280;41776;48.260;8.928;2022-12-24T07:04:18;52622.63;;;-145.69;100.00
1726;BME280;41776;48.260;8.928;2022-12-24T07:06:44;52652.34;;;-145.69;100.00
1726;BME280;41776;48.260;8.928;2022-12-24T07:09:12;52630.53;;;-145.69;100.00
1726;BME280;41776;48.260;8.928;2022-12-24T07:11:39;52662.22;;;-145.69;100.00
1726;BME280;41776;48.260;8.928;2022-12-24T07:14:07;52630.53;;;-145.69;100.00
1726;BME280;41776;48.260;8.928;2022-12-24T07:16:33;52634.50;;;-145.69;100.00
1726;BME280;41776;48.260;8.928;2022-12-24T07:19:00;52650.34;;;-145.69;100.00
1726;BME280;41776;48.260;8.928;2022-12-24T07:21:26;52614.72;;;-145.69;100.00
1726;BME280;41776;48.260;8.928;2022-12-24T07:23:52;52646.41;;;-145.69;100.00
1726;BME280;41776;48.260;8.928;2022-12-24T07:26:19;52630.53;;;-145.69;100.00
1726;BME280;41776;48.260;8.928;2022-12-24T07:28:45;52610.75;;;-145.69;100.00
1726;BME280;41776;48.260;8.928;2022-12-24T07:31:13;52600.84;;;-145.69;100.00
1726;BME280;41776;48.260;8.928;2022-12-24T07:33:40;52602.81;;;-145.69;100.00
1726;BME280;41776;48.260;8.928;2022-12-24T07:36:09;52638.47;;;-145.69;100.00
1726;BME280;41776;48.260;8.928;2022-12-24T07:38:37;52634.50;;;-145.69;100.00
1726;BME280;41776;48.260;8.928;2022-12-24T07:41:03;52610.75;;;-145.69;100.00
1726;BME280;41776;48.260;8.928;2022-12-24T07:43:31;52632.53;;;-145.69;100.00
1726;BME280;41776;48.260;8.928;2022-12-24T07:45:58;52622.63;;;-145.69;100.00
1726;BME280;41776;48.260;8.928;2022-12-24T07:48:28;52612.72;;;-145.69;100.00
1726;BME280;41776;48.260;8.928;2022-12-24T07:50:55;52618.66;;;-145.69;100.00
1726;BME280;41776;48.260;8.928;2022-12-24T07:53:22;52640.44;;;-145.69;100.00
1726;BME280;41776;48.260;8.928;2022-12-24T07:55:49;52626.59;;;-145.69;100.00
1726;BME280;41776;48.260;8.928;2022-12-24T07:58:16;52596.88;;;-145.69;100.00
1726;BME280;41776;48.260;8.928;2022-12-24T08:00:43;52581.03;;;-145.69;100.00
1726;BME280;41776;48.260;8.928;2022-12-24T08:03:15;52592.91;;;-145.69;100.00
1726;BME280;41776;48.260;8.928;2022-12-24T08:05:43;52614.72;;;-145.69;100.00
1726;BME280;41776;48.260;8.928;2022-12-24T08:08:09;52636.50;;;-145.69;100.00
1726;BME280;41776;48.260;8.928;2022-12-24T08:10:37;52579.06;;;-145.69;100.00
1726;BME280;41776;48.260;8.928;2022-12-24T08:13:03;52592.91;;;-145.69;100.00
1726;BME280;41776;48.260;8.928;2022-12-24T08:15:31;52622.63;;;-145.69;100.00
1726;BME280;41776;48.260;8.928;2022-12-24T08:17:57;52620.66;;;-145.69;100.00
1726;BME280;41776;48.260;8.928;2022-12-24T08:20:24;52618.66;;;-145.69;100.00
1726;BME280;41776;48.260;8.928;2022-12-24T08:22:52;52614.72;;;-145.69;100.00
1726;BME280;41776;48.260;8.928;2022-12-24T08:25:19;52600.84;;;-145.69;100.00
1726;BME280;41776;48.260;8.928;2022-12-24T08:27:46;52628.56;;;-145.69;100.00
1726;BME280;41776;48.260;8.928;2022-12-24T08:30:13;52614.72;;;-145.69;100.00
1726;BME280;41776;48.260;8.928;2022-12-24T08:32:39;52592.91;;;-145.69;100.00
1726;BME280;41776;48.260;8.928;2022-12-24T08:35:07;52632.53;;;-145.69;100.00
1726;BME280;41776;48.260;8.928;2022-12-24T08:37:33;52610.75;;;-145.69;100.00
1726;BME280;41776;48.260;8.928;2022-12-24T08:40:01;52622.63;;;-145.69;100.00
1726;BME280;41776;48.260;8.928;2022-12-24T08:42:28;52602.81;;;-145.69;100.00
1726;BME280;41776;48.260;8.928;2022-12-24T08:44:54;52594.91;;;-145.69;100.00
1726;BME280;41776;48.260;8.928;2022-12-24T08:47:21;52608.75;;;-145.69;100.00
1726;BME280;41776;48.260;8.928;2022-12-24T08:49:47;52622.63;;;-145.69;100.00
1726;BME280;41776;48.260;8.928;2022-12-24T08:52:14;52598.84;;;-145.69;100.00
1726;BME280;41776;48.260;8.928;2022-12-24T08:54:40;52598.84;;;-145.69;100.00
1726;BME280;41776;48.260;8.928;2022-12-24T08:57:08;52610.75;;;-145.69;100.00
1726;BME280;41776;48.260;8.928;2022-12-24T08:59:34;52583.00;;;-145.69;100.00
1726;BME280;41776;48.260;8.928;2022-12-24T09:02:01;52590.94;;;-145.69;100.00
1726;BME280;41776;48.260;8.928;2022-12-24T09:04:27;52594.91;;;-145.69;100.00
1726;BME280;41776;48.260;8.928;2022-12-24T09:06:54;52575.09;;;-145.69;100.00
1726;BME280;41776;48.260;8.928;2022-12-24T09:09:20;52602.81;;;-145.69;100.00
1726;BME280;41776;48.260;8.928;2022-12-24T09:11:47;52592.91;;;-145.69;100.00
1726;BME280;41776;48.260;8.928;2022-12-24T09:14:15;52626.59;;;-145.69;100.00
1726;BME280;41776;48.260;8.928;2022-12-24T09:16:41;52567.16;;;-145.69;100.00
1726;BME280;41776;48.260;8.928;2022-12-24T09:19:08;52577.06;;;-145.69;100.00
1726;BME280;41776;48.260;8.928;2022-12-24T09:21:34;52583.00;;;-145.69;100.00
1726;BME280;41776;48.260;8.928;2022-12-24T09:24:02;52600.84;;;-145.69;100.00
1726;BME280;41776;48.260;8.928;2022-12-24T09:26:29;52596.88;;;-145.69;100.00
1726;BME280;41776;48.260;8.928;2022-12-24T09:28:56;52585.00;;;-145.69;100.00
1726;BME280;41776;48.260;8.928;2022-12-24T09:31:24;52577.06;;;-145.69;100.00
1726;BME280;41776;48.260;8.928;2022-12-24T09:33:51;52577.06;;;-145.69;100.00
1726;BME280;41776;48.260;8.928;2022-12-24T09:36:19;52585.00;;;-145.69;100.00
1726;BME280;41776;48.260;8.928;2022-12-24T09:38:46;52594.91;;;-145.69;100.00
1726;BME280;41776;48.260;8.928;2022-12-24T09:41:14;52581.03;;;-145.69;100.00
1726;BME280;41776;48.260;8.928;2022-12-24T09:43:45;52563.22;;;-145.69;100.00
1726;BME280;41776;48.260;8.928;2022-12-24T09:46:19;52561.22;;;-145.69;100.00
1726;BME280;41776;48.260;8.928;2022-12-24T09:48:51;52583.00;;;-145.69;100.00
1726;BME280;41776;48.260;8.928;2022-12-24T09:51:24;52586.97;;;-145.69;100.00
1726;BME280;41776;48.260;8.928;2022-12-24T09:53:54;52600.84;;;-145.69;100.00
1726;BME280;41776;48.260;8.928;2022-12-24T09:56:25;52586.97;;;-145.69;100.00
1726;BME280;41776;48.260;8.928;2022-12-24T09:58:56;52559.25;;;-145.69;100.00
1726;BME280;41776;48.260;8.928;2022-12-24T10:01:24;52588.97;;;-145.69;100.00
1726;BME280;41776;48.260;8.928;2022-12-24T10:03:52;52569.16;;;-145.69;100.00
1726;BME280;41776;48.260;8.928;2022-12-24T10:06:20;52579.06;;;-145.69;100.00
1726;BME280;41776;48.260;8.928;2022-12-24T10:09:01;52596.88;;;-145.69;100.00
1726;BME280;41776;48.260;8.928;2022-12-24T10:11:36;52583.00;;;-145.69;100.00
1726;BME280;41776;48.260;8.928;2022-12-24T10:14:18;52602.81;;;-145.69;100.00
1726;BME280;41776;48.260;8.928;2022-12-24T10:16:51;52575.09;;;-145.69;100.00
1726;BME280;41776;48.260;8.928;2022-12-24T10:19:30;52606.78;;;-145.69;100.00
1726;BME280;41776;48.260;8.928;2022-12-24T10:22:17;52559.25;;;-145.69;100.00
1726;BME280;41776;48.260;8.928;2022-12-24T10:24:48;52567.16;;;-145.69;100.00
1726;BME280;41776;48.260;8.928;2022-12-24T10:27:22;52575.09;;;-145.69;100.00
1726;BME280;41776;48.260;8.928;2022-12-24T10:29:53;52569.16;;;-145.69;100.00
1726;BME280;41776;48.260;8.928;2022-12-24T10:32:25;52606.78;;;-145.69;100.00
1726;BME280;41776;48.260;8.928;2022-12-24T10:34:58;52547.38;;;-145.69;100.00
1726;BME280;41776;48.260;8.928;2022-12-24T10:37:27;52563.22;;;-145.69;100.00
1726;BME280;41776;48.260;8.928;2022-12-24T10:39:54;52551.31;;;-145.69;100.00
1726;BME280;41776;48.260;8.928;2022-12-24T10:42:24;52583.00;;;-145.69;100.00
1726;BME280;41776;48.260;8.928;2022-12-24T10:45:01;52559.25;;;-145.69;100.00
1726;BME280;41776;48.260;8.928;2022-12-24T10:47:30;52594.91;;;-145.69;100.00
1726;BME280;41776;48.260;8.928;2022-12-24T10:50:03;52565.19;;;-145.69;100.00
1726;BME280;41776;48.260;8.928;2022-12-24T10:52:33;52596.88;;;-145.69;100.00
1726;BME280;41776;48.260;8.928;2022-12-24T10:55:10;52590.94;;;-145.69;100.00
1726;BME280;41776;48.260;8.928;2022-12-24T10:57:38;52579.06;;;-145.69;100.00
1726;BME280;41776;48.260;8.928;2022-12-24T11:00:07;52583.00;;;-145.69;100.00
1726;BME280;41776;48.260;8.928;2022-12-24T11:02:43;52547.38;;;-145.69;100.00
1726;BME280;41776;48.260;8.928;2022-12-24T11:05:27;52559.25;;;-145.69;100.00
1726;BME280;41776;48.260;8.928;2022-12-24T11:07:58;52555.28;;;-145.69;100.00
1726;BME280;41776;48.260;8.928;2022-12-24T11:10:25;52547.38;;;-145.69;100.00
1726;BME280;41776;48.260;8.928;2022-12-24T11:12:52;52581.03;;;-145.69;100.00
1726;BME280;41776;48.260;8.928;2022-12-24T11:15:30;52543.41;;;-145.69;100.00
1726;BME280;41776;48.260;8.928;2022-12-24T11:18:08;52594.91;;;-145.69;100.00
1726;BME280;41776;48.260;8.928;2022-12-24T11:20:47;52561.22;;;-145.69;100.00
1726;BME280;41776;48.260;8.928;2022-12-24T11:23:16;52547.38;;;-145.69;100.00
1726;BME280;41776;48.260;8.928;2022-12-24T11:25:47;52559.25;;;-145.69;100.00
1726;BME280;41776;48.260;8.928;2022-12-24T11:28:21;52537.47;;;-145.69;100.00
1726;BME280;41776;48.260;8.928;2022-12-24T11:31:00;52588.97;;;-145.69;100.00
1726;BME280;41776;48.260;8.928;2022-12-24T11:33:27;52583.00;;;-145.69;100.00
1726;BME280;41776;48.260;8.928;2022-12-24T11:36:04;52583.00;;;-145.69;100.00
1726;BME280;41776;48.260;8.928;2022-12-24T11:38:33;52557.28;;;-145.69;100.00
1726;BME280;41776;48.260;8.928;2022-12-24T11:41:06;52571.13;;;-145.69;100.00
1726;BME280;41776;48.260;8.928;2022-12-24T11:43:39;52551.31;;;-145.69;100.00
1726;BME280;41776;48.260;8.928;2022-12-24T11:46:14;52535.47;;;-145.69;100.00
1726;BME280;41776;48.260;8.928;2022-12-24T11:48:41;52598.84;;;-145.69;99.41
1726;BME280;41776;48.260;8.928;2022-12-24T11:51:20;52571.13;;;-145.69;100.00
1726;BME280;41776;48.260;8.928;2022-12-24T11:53:50;52555.28;;;-145.69;100.00
1726;BME280;41776;48.260;8.928;2022-12-24T11:56:27;52569.16;;;-145.69;100.00
1726;BME280;41776;48.260;8.928;2022-12-24T11:59:00;52545.38;;;-145.69;100.00
1726;BME280;41776;48.260;8.928;2022-12-24T12:01:33;52531.53;;;-145.69;100.00
1726;BME280;41776;48.260;8.928;2022-12-24T12:04:04;52519.63;;;-145.69;100.00
1726;BME280;41776;48.260;8.928;2022-12-24T12:06:36;52507.75;;;-145.69;100.00
1726;BME280;41776;48.260;8.928;2022-12-24T12:09:06;52545.38;;;-145.69;100.00
1726;BME280;41776;48.260;8.928;2022-12-24T12:11:38;52543.41;;;-145.69;100.00
1726;BME280;41776;48.260;8.928;2022-12-24T12:14:08;52535.47;;;-145.69;100.00
1726;BME280;41776;48.260;8.928;2022-12-24T12:16:45;52519.63;;;-145.69;100.00
1726;BME280;41776;48.260;8.928;2022-12-24T12:19:36;52533.50;;;-145.69;100.00
1726;BME280;41776;48.260;8.928;2022-12-24T12:22:11;52537.47;;;-145.69;100.00
1726;BME280;41776;48.260;8.928;2022-12-24T12:24:45;52559.25;;;-145.69;100.00
1726;BME280;41776;48.260;8.928;2022-12-24T12:27:19;52523.59;;;-145.69;100.00
1726;BME280;41776;48.260;8.928;2022-12-24T12:29:55;52561.22;;;-145.69;100.00
1726;BME280;41776;48.260;8.928;2022-12-24T12:32:26;52519.63;;;-145.69;100.00
1726;BME280;41776;48.260;8.928;2022-12-24T12:35:02;52561.22;;;-145.69;100.00
1726;BME280;41776;48.260;8.928;2022-12-24T12:37:34;52531.53;;;-145.69;100.00
1726;BME280;41776;48.260;8.928;2022-12-24T12:40:11;52541.44;;;-145.69;100.00
1726;BME280;41776;48.260;8.928;2022-12-24T12:42:39;52543.41;;;-145.69;100.00
1726;BME280;41776;48.260;8.928;2022-12-24T12:45:35;52592.91;;;-145.69;100.00
1726;BME280;41776;48.260;8.928;2022-12-24T12:48:21;52563.22;;;-145.69;100.00
1726;BME280;41776;48.260;8.928;2022-12-24T12:51:01;52561.22;;;-145.69;100.00
1726;BME280;41776;48.260;8.928;2022-12-24T12:53:40;52586.97;;;-145.69;100.00